Webcam Weerstation Emmen Zuid-West Meer informatie Webcam Weerstation Emmen Zuid-West


Onweer radar Meer informatie blitzortung!


Regen radar  rain snow radar


Lokaal brand risico:
Gebaseerd op waardes van gisteren en vandaag
CBI


Regionaal brand risico: Meer informatie


Lokaal brand risico:
Gebaseerd op actuele waarde
CBI



Het weer levert geen direct gevaar op.    Er zijn geen waarschuwingen afgegeven.

METAR rapporten vliegvelden

   
ETWM - Meppen, Germany
Afstand tot: O 29 km
Gewijzigd: 15-11-2018 05:20
  
  
   Wind: varieert 1.9 km/h
Wind: varieert 1.9 km/h
Temperatuur: 0°C
Dauwpunt: 0°C
Vochtigheid: 100%
Barometer: 1026 hPa
Zicht: 0 km
ETWM 150420Z AUTO VRB01KT 0250 // ////// 00/M00 Q1026 ///
EHGG - Groningen/Eelde, Netherlands
Afstand tot: NNW 47 km
Gewijzigd: 15-11-2018 05:25
Nevel, Helder  
Nevel, Helder  
   Wind: ZZO 5.6 km/h
Wind: ZZO 5.6 km/h
Temperatuur: 3°C
Voelt als: 2°C
Dauwpunt: 3°C
Vochtigheid: 100%
Barometer: 1025 hPa
Bewolking: Helder
Zicht: 5 km
Bewolking: Helder
EHGG 150425Z AUTO 15003KT 120V180 5000 BR NCD 03/03 Q1025
EDDG - Muenster/Osnabru, Germany
Afstand tot: ZO 87 km
Gewijzigd: 15-11-2018 05:20
Nevel, Gedeeltelijk bewolkt  
Nevel, Gedeeltelijk bewolkt  
   Wind: OZO 5.6 km/h
Wind: OZO 5.6 km/h
Temperatuur: 3°C
Voelt als: 2°C
Dauwpunt: 3°C
Vochtigheid: 100%
Barometer: 1026 hPa
Bewolking: Gedeeltelijk bewolkt
Zicht: 5 km
Bewolking: Gedeeltelijk bewolkt
EDDG 150420Z 12003KT 030V200 5000 BR NSC 03/03 Q1026 BECMG 4000
EHLW - Leeuwarden Rnlaf, Netherlands
Afstand tot: NW 93 km
Gewijzigd: 15-11-2018 05:25
Nevel, Bewolking  
Nevel, Bewolking  
   Wind: ZZO 11.1 km/h
Wind: ZZO 11.1 km/h
Temperatuur: 5°C
Voelt als: 2°C
Dauwpunt: 4°C
Vochtigheid: 93%
Barometer: 1024 hPa
Bewolking: Bewolking
Zicht: 5 km
Bewolking: Bewolking 31000 ft
EHLW 150425Z AUTO 16006KT 120V180 4900 BR OVC310 05/04 Q1024 GRN
ETNT - Wittmundhaven(Ga, Germany
Afstand tot: NNO 100 km
Gewijzigd: 15-11-2018 05:20
Shallow, Mist, Licht bewolkt  
Shallow, Mist, Licht bewolkt  
   Wind: Oosten 9.3 km/h
Wind: Oosten 9.3 km/h
Temperatuur: 4°C
Voelt als: 2°C
Dauwpunt: 3°C
Vochtigheid: 93%
Barometer: 1026 hPa
Bewolking: Licht bewolkt
Zicht: 6 km
Bewolking: Licht bewolkt 30000 ft
ETNT 150420Z 10005KT 6000 R26/0550N MIFG FEW300 04/03 Q1026 WHT
ETND - Diepholz (ger-Af, Germany
Afstand tot: O 104 km
Gewijzigd: 14-11-2018 15:20
Verouderd
Grotendeels bewolkt  
Grotendeels bewolkt  
   Wind: ZZW 13 km/h
Wind: ZZW 13 km/h
Temperatuur: 13°C
Dauwpunt: 7°C
Vochtigheid: 67%
Barometer: 1027 hPa
Bewolking: Grotendeels bewolkt
Zicht: meer dan 10 km
Bewolking: Licht bewolkt 2500 ft,
Grotendeels bewolkt 30000 ft
ETND 141420Z 21007KT 9999 FEW025 BKN300 13/07 Q1027 BLU+
ETNT - Wittmundhaven(Ga, Germany
Afstand tot: NNO 102 km
Gewijzigd: 15-11-2018 05:20
Shallow, Mist, Licht bewolkt  
Shallow, Mist, Licht bewolkt  
   Wind: Oosten 9.3 km/h
Wind: Oosten 9.3 km/h
Temperatuur: 4°C
Voelt als: 2°C
Dauwpunt: 3°C
Vochtigheid: 93%
Barometer: 1026 hPa
Bewolking: Licht bewolkt
Zicht: 6 km
Bewolking: Licht bewolkt 30000 ft
ETNT 150420Z 10005KT 6000 R26/0550N MIFG FEW300 04/03 Q1026 WHT
EHDL - Deelen Rnlafb, Netherlands
Afstand tot: ZW 103 km
Gewijzigd: 15-11-2018 05:25
Nevel, Bewolking  
Nevel, Bewolking  
   Wind: Oosten 5.6 km/h
Wind: Oosten 5.6 km/h
Temperatuur: 4°C
Voelt als: 3°C
Dauwpunt: 4°C
Vochtigheid: 100%
Barometer: 1024 hPa
Bewolking: Bewolking
Zicht: 2 km
Bewolking: Licht bewolkt 100 ft,
Bewolking 33000 ft
EHDL 150425Z AUTO 10003KT 070V190 2300 BR FEW001 OVC330 04/04 Q1024 YLO
EHMA - Awg-1 Sea, Netherlands
Afstand tot: NW 105 km
Gewijzigd: 15-11-2018 05:25
Helder  
Helder  
   Wind: Zuiden 27.8 km/h
Wind: Zuiden 27.8 km/h
Temperatuur: 6°C
Voelt als: 2°C
Dauwpunt: 5°C
Vochtigheid: 93%
Barometer: 1024 hPa
Bewolking: Helder
Zicht: 9 km
Bewolking: Helder
EHMA 150425Z AUTO 18015KT 9000 NCD 06/05 Q1024 W///H///
EDDW - Bremen, Germany
Afstand tot: ONO 135 km
Gewijzigd: 15-11-2018 05:20
Nevel, Gedeeltelijk bewolkt  
Nevel, Gedeeltelijk bewolkt  
   Wind: ZZO 5.6 km/h
Wind: ZZO 5.6 km/h
Temperatuur: 4°C
Voelt als: 3°C
Dauwpunt: 4°C
Vochtigheid: 100%
Barometer: 1027 hPa
Bewolking: Gedeeltelijk bewolkt
Zicht: 5 km
Bewolking: Gedeeltelijk bewolkt
EDDW 150420Z 15003KT 120V180 4500 R09/0800VP2000D BR NSC 04/04 Q1027 NOSIG
EHVL - Vlieland Island, Netherlands
Afstand tot: WNW 138 km
Gewijzigd: 15-11-2018 05:25
Bewolking  
Bewolking  
   Wind: ZZO 25.9 km/h
Wind: ZZO 25.9 km/h
Temperatuur: 8°C
Voelt als: 4°C
Dauwpunt: 7°C
Vochtigheid: 93%
Barometer: 1023 hPa
Bewolking: Bewolking
Zicht: meer dan 10 km
Bewolking: Bewolking 32000 ft
EHVL 150425Z AUTO 15014KT 9999 OVC320 08/07 Q1023 BLU
EDLV - Niederrhein, Germany
Afstand tot: ZZW 139 km
Gewijzigd: 15-11-2018 05:20
Gedeeltelijk bewolkt  
Gedeeltelijk bewolkt  
   Wind: ZO 11.1 km/h
Wind: ZO 11.1 km/h
Temperatuur: 5°C
Voelt als: 2°C
Dauwpunt: 5°C
Vochtigheid: 100%
Barometer: 1025 hPa
Bewolking: Gedeeltelijk bewolkt
Zicht: 6 km
Bewolking: Gedeeltelijk bewolkt
EDLV 150420Z 14006KT 6000 NSC 05/05 Q1025
EHKD - De Kooy (navy), Netherlands
Afstand tot: W 144 km
Gewijzigd: 15-11-2018 05:25
Bewolking  
Bewolking  
   Wind: ZZO 11.1 km/h
Wind: ZZO 11.1 km/h
Temperatuur: 6°C
Voelt als: 4°C
Dauwpunt: 5°C
Vochtigheid: 93%
Barometer: 1023 hPa
Bewolking: Bewolking
Zicht: meer dan 10 km
Bewolking: Bewolking 32000 ft
EHKD 150425Z AUTO 15006KT 120V200 9999 OVC320 06/05 Q1023 BLU
EDLW - Dortmund/Wickede, Germany
Afstand tot: ZZO 150 km
Gewijzigd: 15-11-2018 05:20
Helder  
Helder  
   Wind: ZZO 9.3 km/h
Wind: ZZO 9.3 km/h
Temperatuur: 4°C
Voelt als: 2°C
Dauwpunt: 2°C
Vochtigheid: 87%
Barometer: 1025 hPa
Zicht: meer dan 10 km
Bewolking: Helder
EDLW 150420Z 16005KT CAVOK 04/02 Q1025
EHVK - Volkel Rnlafb, Netherlands
Afstand tot: ZZW 149 km
Gewijzigd: 15-11-2018 05:25
Nevel, Bewolking  
Nevel, Bewolking  
   Wind: ZZO 5.6 km/h
Wind: ZZO 5.6 km/h
Temperatuur: 4°C
Voelt als: 3°C
Dauwpunt: 4°C
Vochtigheid: 100%
Barometer: 1024 hPa
Bewolking: Bewolking
Zicht: 4 km
Bewolking: Bewolking 32000 ft
EHVK 150425Z AUTO 15003KT 4400 BR OVC320 04/04 Q1024 GRN
EDLW - Dortmund/Wickede, Germany
Afstand tot: ZZO 150 km
Gewijzigd: 15-11-2018 05:20
Helder  
Helder  
   Wind: ZZO 9.3 km/h
Wind: ZZO 9.3 km/h
Temperatuur: 4°C
Voelt als: 2°C
Dauwpunt: 2°C
Vochtigheid: 87%
Barometer: 1025 hPa
Zicht: meer dan 10 km
Bewolking: Helder
EDLW 150420Z 16005KT CAVOK 04/02 Q1025
EHMG - L9-Ff-1 Sea, Netherlands
Afstand tot: NW 155 km
Gewijzigd: 15-11-2018 05:25
Helder  
Helder  
   Wind: Zuiden 31.5 km/h
Wind: Zuiden 31.5 km/h
Temperatuur: 10°C
Voelt als: 7°C
Dauwpunt: 8°C
Vochtigheid: 88%
Barometer: 1024 hPa
Bewolking: Helder
Zicht: meer dan 10 km
Bewolking: Helder
EHMG 150425Z AUTO 18017KT 9999 NCD 10/08 Q1024 W///H///
ETHB - Buckeburg(Ger-Ar, Germany
Afstand tot: OZO 161 km
Gewijzigd: 15-11-2018 05:20
Nearby Fog, Licht bewolkt  
Nearby Fog, Licht bewolkt  
   Wind: Zuiden 16.7 km/h
Wind: Zuiden 16.7 km/h
Temperatuur: 5°C
Voelt als: 2°C
Dauwpunt: 4°C
Vochtigheid: 93%
Barometer: 1026 hPa
Bewolking: Licht bewolkt
Zicht: meer dan 10 km
Bewolking: Licht bewolkt 28000 ft
ETHB 150420Z 17009KT 9999 VCFG FEW280 05/04 Q1026 BLU+
ETMN - Nordholz (ger-Na, Germany
Afstand tot: NO 164 km
Gewijzigd: 15-11-2018 05:20
Mist, Grotendeels bewolkt  
Mist, Grotendeels bewolkt  
   Wind: ZZO 9.3 km/h
Wind: ZZO 9.3 km/h
Temperatuur: 4°C
Voelt als: 2°C
Dauwpunt: 3°C
Vochtigheid: 93%
Barometer: 1026 hPa
Bewolking: Grotendeels bewolkt
Zicht: 1 km
Bewolking: Gedeeltelijk bewolkt 16000 ft,
Grotendeels bewolkt 35000 ft
ETMN 150420Z 16005KT 0600 R08/9000U FG SCT160 BKN350 04/03 Q1026 RED
EDDL - Duesseldorf, Germany
Afstand tot: Z 165 km
Gewijzigd: 15-11-2018 05:20
Helder  
Helder  
   Wind: ZZO 20.4 km/h
Wind: ZZO 20.4 km/h
Temperatuur: 6°C
Voelt als: 2°C
Dauwpunt: 4°C
Vochtigheid: 87%
Barometer: 1025 hPa
Zicht: meer dan 10 km
Bewolking: Helder
EDDL 150420Z 15011KT CAVOK 06/04 Q1025 NOSIG
EDLN - Monchengladbach, Germany
Afstand tot: Z 174 km
Gewijzigd: 14-11-2018 20:20
Verouderd
Helder  
Helder  
   Wind: ZO 7.4 km/h
Wind: ZO 7.4 km/h
Temperatuur: 6°C
Voelt als: 4°C
Dauwpunt: 5°C
Vochtigheid: 93%
Barometer: 1026 hPa
Zicht: meer dan 10 km
Bewolking: Helder
EDLN 141920Z 14004KT CAVOK 06/05 Q1026

Script ontwikkeld door  Saratoga-weather.org Aangepast voor de template door  Weerstation Leuven

U vindt ons ook hier:

UK Metoffice

European Weather Network

WeatherCloud

Weather Underground

Benelux Weer Netwerk

AWEKAS

Citizen Weather Observer Program (CWOP)

HAMweather, WeatherForYou, PWS Weather

Wetterpage 24

Apparatuur in gebruik:

Weerstation
Davis VP2

Weerprogramma
Meteohub

Hardware
RaspberryPI, Wireless Weather Envoy, MeteoStick, TP-Link MR3020

Leverancier
Weerhuisje.nl weerstations

Davis VP2

Meteohub

RaspberryPI, Wireless Weather Envoy, MeteoStick, TP-Link MR3020

Weerhuisje.nl weerstations